sensor_id;sensor_type;location;lat;lon;timestamp;pressure;altitude;pressure_sealevel;temperature;humidity
21100;BME280;10708;50.824;4.408;2022-12-07T00:04:22;100990.56;;;4.32;100.00
21100;BME280;10708;50.824;4.408;2022-12-07T00:09:26;100984.50;;;4.25;100.00
21100;BME280;10708;50.824;4.408;2022-12-07T00:14:28;100987.16;;;4.16;100.00
21100;BME280;10708;50.824;4.408;2022-12-07T00:19:31;100980.22;;;4.04;100.00
21100;BME280;10708;50.824;4.408;2022-12-07T00:24:34;100975.03;;;3.98;100.00
21100;BME280;10708;50.824;4.408;2022-12-07T00:29:37;100981.97;;;3.90;100.00
21100;BME280;10708;50.824;4.408;2022-12-07T00:34:39;100975.03;;;3.83;100.00
21100;BME280;10708;50.824;4.408;2022-12-07T00:39:47;100972.47;;;3.77;100.00
21100;BME280;10708;50.824;4.408;2022-12-07T00:44:49;100969.84;;;3.72;100.00
21100;BME280;10708;50.824;4.408;2022-12-07T00:49:52;100970.72;;;3.70;100.00
21100;BME280;10708;50.824;4.408;2022-12-07T00:54:55;100966.41;;;3.66;100.00
21100;BME280;10708;50.824;4.408;2022-12-07T00:59:58;100961.19;;;3.63;100.00
21100;BME280;10708;50.824;4.408;2022-12-07T01:05:01;100962.06;;;3.62;100.00
21100;BME280;10708;50.824;4.408;2022-12-07T01:10:06;100965.53;;;3.59;100.00
21100;BME280;10708;50.824;4.408;2022-12-07T01:15:09;100962.91;;;3.62;100.00
21100;BME280;10708;50.824;4.408;2022-12-07T01:20:13;100958.59;;;3.66;100.00
21100;BME280;10708;50.824;4.408;2022-12-07T01:25:18;100968.13;;;3.64;100.00
21100;BME280;10708;50.824;4.408;2022-12-07T01:30:20;100956.00;;;3.55;100.00
21100;BME280;10708;50.824;4.408;2022-12-07T01:35:23;100960.31;;;3.53;100.00
21100;BME280;10708;50.824;4.408;2022-12-07T01:40:27;100969.00;;;3.54;100.00
21100;BME280;10708;50.824;4.408;2022-12-07T01:45:38;100960.31;;;3.52;100.00
21100;BME280;10708;50.824;4.408;2022-12-07T01:50:42;100962.06;;;3.56;100.00
21100;BME280;10708;50.824;4.408;2022-12-07T01:55:49;100964.66;;;3.54;100.00
21100;BME280;10708;50.824;4.408;2022-12-07T02:00:54;100970.75;;;3.56;100.00
21100;BME280;10708;50.824;4.408;2022-12-07T02:05:57;100971.63;;;3.58;100.00
21100;BME280;10708;50.824;4.408;2022-12-07T02:11:03;100977.66;;;3.60;100.00
21100;BME280;10708;50.824;4.408;2022-12-07T02:16:15;100974.22;;;3.64;100.00
21100;BME280;10708;50.824;4.408;2022-12-07T02:21:27;100966.41;;;3.64;100.00
21100;BME280;10708;50.824;4.408;2022-12-07T02:27:09;100958.56;;;3.75;100.00
21100;BME280;10708;50.824;4.408;2022-12-07T02:32:23;100959.41;;;3.82;100.00
21100;BME280;10708;50.824;4.408;2022-12-07T02:37:34;100956.84;;;3.77;100.00
21100;BME280;10708;50.824;4.408;2022-12-07T02:42:42;100964.63;;;3.80;100.00
21100;BME280;10708;50.824;4.408;2022-12-07T02:47:51;100950.75;;;3.78;100.00
21100;BME280;10708;50.824;4.408;2022-12-07T02:52:57;100943.78;;;3.88;100.00
21100;BME280;10708;50.824;4.408;2022-12-07T02:58:22;100948.09;;;3.92;100.00
21100;BME280;10708;50.824;4.408;2022-12-07T03:03:27;100959.41;;;3.85;100.00
21100;BME280;10708;50.824;4.408;2022-12-07T03:08:39;100955.09;;;3.76;100.00
21100;BME280;10708;50.824;4.408;2022-12-07T03:13:48;100946.44;;;3.68;100.00
21100;BME280;10708;50.824;4.408;2022-12-07T03:18:56;100944.69;;;3.64;100.00
21100;BME280;10708;50.824;4.408;2022-12-07T03:24:04;100945.56;;;3.55;100.00
21100;BME280;10708;50.824;4.408;2022-12-07T03:29:13;100942.97;;;3.54;100.00
21100;BME280;10708;50.824;4.408;2022-12-07T03:34:23;100947.31;;;3.52;100.00
21100;BME280;10708;50.824;4.408;2022-12-07T03:39:30;100935.16;;;3.51;100.00
21100;BME280;10708;50.824;4.408;2022-12-07T03:44:36;100929.94;;;3.52;100.00
21100;BME280;10708;50.824;4.408;2022-12-07T03:49:44;100931.69;;;3.50;100.00
21100;BME280;10708;50.824;4.408;2022-12-07T03:54:52;100926.47;;;3.43;100.00
21100;BME280;10708;50.824;4.408;2022-12-07T03:59:58;100927.34;;;3.42;100.00
21100;BME280;10708;50.824;4.408;2022-12-07T04:05:03;100916.97;;;3.39;100.00
21100;BME280;10708;50.824;4.408;2022-12-07T04:10:06;100916.94;;;3.36;100.00
21100;BME280;10708;50.824;4.408;2022-12-07T04:15:09;100919.56;;;3.36;100.00
21100;BME280;10708;50.824;4.408;2022-12-07T04:20:14;100921.28;;;3.33;100.00
21100;BME280;10708;50.824;4.408;2022-12-07T04:25:17;100926.50;;;3.26;100.00
21100;BME280;10708;50.824;4.408;2022-12-07T04:30:19;100926.47;;;3.20;100.00
21100;BME280;10708;50.824;4.408;2022-12-07T04:35:23;100930.84;;;3.18;100.00
21100;BME280;10708;50.824;4.408;2022-12-07T04:40:26;100924.75;;;3.14;100.00
21100;BME280;10708;50.824;4.408;2022-12-07T04:45:28;100922.16;;;3.14;100.00
21100;BME280;10708;50.824;4.408;2022-12-07T04:50:32;100929.09;;;3.14;100.00
21100;BME280;10708;50.824;4.408;2022-12-07T04:55:34;100941.25;;;3.18;100.00
21100;BME280;10708;50.824;4.408;2022-12-07T05:00:37;100923.00;;;3.21;100.00
21100;BME280;10708;50.824;4.408;2022-12-07T05:05:41;100913.47;;;3.23;100.00
21100;BME280;10708;50.824;4.408;2022-12-07T05:10:44;100920.44;;;3.25;100.00
21100;BME280;10708;50.824;4.408;2022-12-07T05:15:46;100911.75;;;3.22;100.00
21100;BME280;10708;50.824;4.408;2022-12-07T05:20:50;100927.34;;;3.20;100.00
21100;BME280;10708;50.824;4.408;2022-12-07T05:25:53;100921.28;;;3.23;100.00
21100;BME280;10708;50.824;4.408;2022-12-07T05:30:55;100922.16;;;3.25;100.00
21100;BME280;10708;50.824;4.408;2022-12-07T05:36:08;100929.09;;;3.32;100.00
21100;BME280;10708;50.824;4.408;2022-12-07T05:41:24;100922.16;;;3.34;100.00
21100;BME280;10708;50.824;4.408;2022-12-07T05:46:45;100913.47;;;3.40;100.00
21100;BME280;10708;50.824;4.408;2022-12-07T05:52:17;100913.47;;;3.43;100.00
21100;BME280;10708;50.824;4.408;2022-12-07T05:57:20;100916.06;;;3.43;100.00
21100;BME280;10708;50.824;4.408;2022-12-07T06:02:25;100920.41;;;3.42;100.00
21100;BME280;10708;50.824;4.408;2022-12-07T06:07:29;100916.94;;;3.43;100.00
21100;BME280;10708;50.824;4.408;2022-12-07T06:12:31;100922.16;;;3.43;100.00
21100;BME280;10708;50.824;4.408;2022-12-07T06:17:42;100916.06;;;3.43;100.00
21100;BME280;10708;50.824;4.408;2022-12-07T06:22:46;100929.09;;;3.47;100.00
21100;BME280;10708;50.824;4.408;2022-12-07T06:27:49;100914.34;;;3.45;100.00
21100;BME280;10708;50.824;4.408;2022-12-07T06:32:51;100911.72;;;3.46;100.00
21100;BME280;10708;50.824;4.408;2022-12-07T06:37:54;100910.84;;;3.44;100.00
21100;BME280;10708;50.824;4.408;2022-12-07T06:42:57;100916.06;;;3.43;100.00
21100;BME280;10708;50.824;4.408;2022-12-07T06:47:59;100921.28;;;3.41;100.00
21100;BME280;10708;50.824;4.408;2022-12-07T06:53:03;100928.22;;;3.45;100.00
21100;BME280;10708;50.824;4.408;2022-12-07T06:58:06;100922.13;;;3.51;100.00
21100;BME280;10708;50.824;4.408;2022-12-07T07:03:11;100907.38;;;3.59;100.00
21100;BME280;10708;50.824;4.408;2022-12-07T07:08:19;100919.50;;;3.63;100.00
21100;BME280;10708;50.824;4.408;2022-12-07T07:13:21;100936.00;;;3.62;100.00
21100;BME280;10708;50.824;4.408;2022-12-07T07:18:24;100926.44;;;3.70;100.00
21100;BME280;10708;50.824;4.408;2022-12-07T07:23:28;100922.97;;;3.71;100.00
21100;BME280;10708;50.824;4.408;2022-12-07T07:28:31;100922.97;;;3.69;100.00
21100;BME280;10708;50.824;4.408;2022-12-07T07:33:34;100936.88;;;3.62;100.00
21100;BME280;10708;50.824;4.408;2022-12-07T07:38:38;100936.88;;;3.59;100.00
21100;BME280;10708;50.824;4.408;2022-12-07T07:43:40;100934.28;;;3.52;100.00
21100;BME280;10708;50.824;4.408;2022-12-07T07:48:42;100934.28;;;3.56;100.00
21100;BME280;10708;50.824;4.408;2022-12-07T07:53:49;100943.00;;;3.49;100.00
21100;BME280;10708;50.824;4.408;2022-12-07T07:58:53;100931.69;;;3.52;100.00
21100;BME280;10708;50.824;4.408;2022-12-07T08:03:55;100927.34;;;3.51;100.00
21100;BME280;10708;50.824;4.408;2022-12-07T08:08:59;100940.34;;;3.51;100.00
21100;BME280;10708;50.824;4.408;2022-12-07T08:14:02;100938.63;;;3.56;100.00
21100;BME280;10708;50.824;4.408;2022-12-07T08:19:04;100937.75;;;3.55;100.00
21100;BME280;10708;50.824;4.408;2022-12-07T08:24:08;100943.84;;;3.54;100.00
21100;BME280;10708;50.824;4.408;2022-12-07T08:29:11;100947.31;;;3.56;100.00
21100;BME280;10708;50.824;4.408;2022-12-07T08:34:13;100960.31;;;3.65;100.00
21100;BME280;10708;50.824;4.408;2022-12-07T08:39:17;100956.84;;;3.68;100.00
21100;BME280;10708;50.824;4.408;2022-12-07T08:44:19;100960.28;;;3.71;100.00
21100;BME280;10708;50.824;4.408;2022-12-07T08:49:24;100962.06;;;3.66;100.00
21100;BME280;10708;50.824;4.408;2022-12-07T08:54:30;100962.91;;;3.61;100.00
21100;BME280;10708;50.824;4.408;2022-12-07T08:59:33;100960.31;;;3.78;100.00
21100;BME280;10708;50.824;4.408;2022-12-07T09:04:36;100951.56;;;4.04;100.00
21100;BME280;10708;50.824;4.408;2022-12-07T09:09:40;100950.59;;;4.25;100.00
21100;BME280;10708;50.824;4.408;2022-12-07T09:14:44;100949.69;;;4.31;100.00
21100;BME280;10708;50.824;4.408;2022-12-07T09:19:46;100955.78;;;4.33;100.00
21100;BME280;10708;50.824;4.408;2022-12-07T09:24:50;100948.75;;;4.53;100.00
21100;BME280;10708;50.824;4.408;2022-12-07T09:29:53;100944.28;;;4.73;100.00
21100;BME280;10708;50.824;4.408;2022-12-07T09:34:56;100940.81;;;4.74;100.00
21100;BME280;10708;50.824;4.408;2022-12-07T09:40:00;100945.03;;;4.92;100.00
21100;BME280;10708;50.824;4.408;2022-12-07T09:45:05;100945.97;;;4.83;100.00
21100;BME280;10708;50.824;4.408;2022-12-07T09:50:13;100939.00;;;4.82;100.00
21100;BME280;10708;50.824;4.408;2022-12-07T09:55:23;100944.94;;;5.06;100.00
21100;BME280;10708;50.824;4.408;2022-12-07T10:00:26;100937.09;;;5.07;100.00
21100;BME280;10708;50.824;4.408;2022-12-07T10:05:31;100928.56;;;4.87;100.00
21100;BME280;10708;50.824;4.408;2022-12-07T10:10:36;100930.16;;;5.05;100.00
21100;BME280;10708;50.824;4.408;2022-12-07T10:15:43;100934.50;;;5.07;100.00
21100;BME280;10708;50.824;4.408;2022-12-07T10:20:46;100935.31;;;5.11;100.00
21100;BME280;10708;50.824;4.408;2022-12-07T10:25:50;100937.84;;;5.23;100.00
21100;BME280;10708;50.824;4.408;2022-12-07T10:30:57;100930.97;;;5.11;100.00
21100;BME280;10708;50.824;4.408;2022-12-07T10:36:17;100924.88;;;5.09;100.00
21100;BME280;10708;50.824;4.408;2022-12-07T10:41:22;100923.94;;;5.21;100.00
21100;BME280;10708;50.824;4.408;2022-12-07T10:46:49;100911.75;;;5.22;100.00
21100;BME280;10708;50.824;4.408;2022-12-07T10:52:01;100908.06;;;5.42;100.00
21100;BME280;10708;50.824;4.408;2022-12-07T10:57:19;100891.41;;;5.54;100.00
21100;BME280;10708;50.824;4.408;2022-12-07T11:02:32;100891.72;;;5.22;100.00
21100;BME280;10708;50.824;4.408;2022-12-07T11:07:43;100879.34;;;5.39;100.00
21100;BME280;10708;50.824;4.408;2022-12-07T11:12:59;100878.44;;;5.45;100.00
21100;BME280;10708;50.824;4.408;2022-12-07T11:18:09;100862.81;;;5.42;100.00
21100;BME280;10708;50.824;4.408;2022-12-07T11:23:20;100865.50;;;5.33;100.00
21100;BME280;10708;50.824;4.408;2022-12-07T11:28:43;100854.19;;;5.31;100.00
21100;BME280;10708;50.824;4.408;2022-12-07T11:33:54;100848.97;;;5.32;100.00
21100;BME280;10708;50.824;4.408;2022-12-07T11:39:07;100855.06;;;5.31;100.00
21100;BME280;10708;50.824;4.408;2022-12-07T11:44:24;100848.22;;;5.19;100.00
21100;BME280;10708;50.824;4.408;2022-12-07T11:49:40;100845.59;;;5.21;100.00
21100;BME280;10708;50.824;4.408;2022-12-07T11:54:45;100838.59;;;5.26;100.00
21100;BME280;10708;50.824;4.408;2022-12-07T11:59:53;100828.06;;;5.32;100.00
21100;BME280;10708;50.824;4.408;2022-12-07T12:05:09;100815.00;;;5.34;100.00
21100;BME280;10708;50.824;4.408;2022-12-07T12:10:18;100812.31;;;5.40;100.00
21100;BME280;10708;50.824;4.408;2022-12-07T12:15:35;100807.09;;;5.40;100.00
21100;BME280;10708;50.824;4.408;2022-12-07T12:20:45;100802.59;;;5.55;100.00
21100;BME280;10708;50.824;4.408;2022-12-07T12:25:51;100798.16;;;5.59;100.00
21100;BME280;10708;50.824;4.408;2022-12-07T12:31:08;100785.25;;;5.48;100.00
21100;BME280;10708;50.824;4.408;2022-12-07T12:36:24;100791.28;;;5.52;100.00
21100;BME280;10708;50.824;4.408;2022-12-07T12:41:53;100782.59;;;5.51;100.00
21100;BME280;10708;50.824;4.408;2022-12-07T12:47:43;100778.19;;;5.58;100.00
21100;BME280;10708;50.824;4.408;2022-12-07T12:58:39;100771.34;;;5.45;100.00
21100;BME280;10708;50.824;4.408;2022-12-07T13:03:55;100770.34;;;5.56;100.00
21100;BME280;10708;50.824;4.408;2022-12-07T13:09:00;100768.53;;;5.60;100.00
21100;BME280;10708;50.824;4.408;2022-12-07T13:14:43;100773.53;;;5.80;100.00
21100;BME280;10708;50.824;4.408;2022-12-07T13:19:59;100762.09;;;5.90;100.00
21100;BME280;10708;50.824;4.408;2022-12-07T13:25:08;100752.34;;;6.03;100.00
21100;BME280;10708;50.824;4.408;2022-12-07T13:30:16;100736.91;;;5.83;100.00
21100;BME280;10708;50.824;4.408;2022-12-07T13:35:33;100741.72;;;6.15;100.00
21100;BME280;10708;50.824;4.408;2022-12-07T13:40:40;100735.78;;;6.04;100.00
21100;BME280;10708;50.824;4.408;2022-12-07T13:45:43;100734.59;;;6.24;100.00
21100;BME280;10708;50.824;4.408;2022-12-07T13:50:55;100726.94;;;6.11;100.00
21100;BME280;10708;50.824;4.408;2022-12-07T13:56:00;100725.03;;;6.22;100.00
21100;BME280;10708;50.824;4.408;2022-12-07T14:01:03;100715.94;;;5.87;100.00
21100;BME280;10708;50.824;4.408;2022-12-07T14:06:24;100712.44;;;5.90;100.00
21100;BME280;10708;50.824;4.408;2022-12-07T14:11:37;100707.31;;;5.79;100.00
21100;BME280;10708;50.824;4.408;2022-12-07T14:16:43;100703.81;;;5.80;100.00
21100;BME280;10708;50.824;4.408;2022-12-07T14:21:47;100710.28;;;5.55;100.00
21100;BME280;10708;50.824;4.408;2022-12-07T14:26:50;100704.31;;;5.44;100.00
21100;BME280;10708;50.824;4.408;2022-12-07T14:31:54;100700.88;;;5.40;100.00
21100;BME280;10708;50.824;4.408;2022-12-07T14:37:03;100694.91;;;5.31;100.00
21100;BME280;10708;50.824;4.408;2022-12-07T14:42:09;100693.16;;;5.31;100.00
21100;BME280;10708;50.824;4.408;2022-12-07T14:47:16;100694.97;;;5.25;100.00
21100;BME280;10708;50.824;4.408;2022-12-07T14:57:37;100688.97;;;5.18;100.00
21100;BME280;10708;50.824;4.408;2022-12-07T15:02:42;100688.13;;;5.16;100.00
21100;BME280;10708;50.824;4.408;2022-12-07T15:07:47;100688.28;;;5.02;100.00
21100;BME280;10708;50.824;4.408;2022-12-07T15:12:55;100677.84;;;5.01;100.00
21100;BME280;10708;50.824;4.408;2022-12-07T15:18:19;100675.22;;;5.01;100.00
21100;BME280;10708;50.824;4.408;2022-12-07T15:23:21;100673.59;;;4.92;100.00
21100;BME280;10708;50.824;4.408;2022-12-07T15:28:25;100670.09;;;4.95;100.00
21100;BME280;10708;50.824;4.408;2022-12-07T15:33:28;100669.25;;;4.93;100.00
21100;BME280;10708;50.824;4.408;2022-12-07T15:38:30;100670.06;;;4.98;100.00
21100;BME280;10708;50.824;4.408;2022-12-07T15:43:36;100670.00;;;5.01;100.00
21100;BME280;10708;50.824;4.408;2022-12-07T15:49:00;100662.25;;;4.95;100.00
21100;BME280;10708;50.824;4.408;2022-12-07T15:54:04;100663.13;;;4.94;100.00
21100;BME280;10708;50.824;4.408;2022-12-07T15:59:19;100660.53;;;4.92;100.00
21100;BME280;10708;50.824;4.408;2022-12-07T16:04:22;100650.00;;;5.01;100.00
21100;BME280;10708;50.824;4.408;2022-12-07T16:09:24;100659.78;;;4.84;100.00
21100;BME280;10708;50.824;4.408;2022-12-07T16:14:28;100651.81;;;4.95;100.00
21100;BME280;10708;50.824;4.408;2022-12-07T16:19:34;100662.25;;;4.95;100.00
21100;BME280;10708;50.824;4.408;2022-12-07T16:24:36;100655.34;;;4.89;100.00
21100;BME280;10708;50.824;4.408;2022-12-07T16:29:40;100645.84;;;4.87;100.00
21100;BME280;10708;50.824;4.408;2022-12-07T16:34:45;100638.91;;;4.84;100.00
21100;BME280;10708;50.824;4.408;2022-12-07T16:39:48;100641.53;;;4.79;100.00
21100;BME280;10708;50.824;4.408;2022-12-07T16:44:52;100639.09;;;4.66;100.00
21100;BME280;10708;50.824;4.408;2022-12-07T16:49:55;100640.78;;;4.70;100.00
21100;BME280;10708;50.824;4.408;2022-12-07T16:54:58;100635.59;;;4.68;100.00
21100;BME280;10708;50.824;4.408;2022-12-07T17:00:34;100636.47;;;4.67;100.00
21100;BME280;10708;50.824;4.408;2022-12-07T17:05:41;100633.97;;;4.57;100.00
21100;BME280;10708;50.824;4.408;2022-12-07T17:10:44;100629.56;;;4.60;100.00
21100;BME280;10708;50.824;4.408;2022-12-07T17:15:56;100632.06;;;4.72;100.00
21100;BME280;10708;50.824;4.408;2022-12-07T17:21:02;100626.91;;;4.68;100.00
21100;BME280;10708;50.824;4.408;2022-12-07T17:26:11;100625.19;;;4.67;100.00
21100;BME280;10708;50.824;4.408;2022-12-07T17:31:20;100618.09;;;4.78;100.00
21100;BME280;10708;50.824;4.408;2022-12-07T17:36:27;100614.69;;;4.70;100.00
21100;BME280;10708;50.824;4.408;2022-12-07T17:41:29;100614.63;;;4.77;100.00
21100;BME280;10708;50.824;4.408;2022-12-07T17:46:52;100609.53;;;4.65;100.00
21100;BME280;10708;50.824;4.408;2022-12-07T17:51:57;100603.38;;;4.72;100.00
21100;BME280;10708;50.824;4.408;2022-12-07T17:57:17;100594.63;;;4.78;100.00
21100;BME280;10708;50.824;4.408;2022-12-07T18:02:21;100594.75;;;4.66;100.00
21100;BME280;10708;50.824;4.408;2022-12-07T18:07:24;100589.41;;;4.78;100.00
21100;BME280;10708;50.824;4.408;2022-12-07T18:12:26;100586.72;;;4.81;100.00
21100;BME280;10708;50.824;4.408;2022-12-07T18:17:30;100592.91;;;4.74;100.00
21100;BME280;10708;50.824;4.408;2022-12-07T18:22:32;100581.81;;;4.57;100.00
21100;BME280;10708;50.824;4.408;2022-12-07T18:27:35;100582.59;;;4.63;100.00
21100;BME280;10708;50.824;4.408;2022-12-07T18:32:38;100592.94;;;4.69;100.00
21100;BME280;10708;50.824;4.408;2022-12-07T18:37:41;100580.84;;;4.67;100.00
21100;BME280;10708;50.824;4.408;2022-12-07T18:42:43;100586.19;;;4.53;100.00
21100;BME280;10708;50.824;4.408;2022-12-07T18:47:47;100567.97;;;4.50;100.00
21100;BME280;10708;50.824;4.408;2022-12-07T18:52:49;100565.41;;;4.47;100.00
21100;BME280;10708;50.824;4.408;2022-12-07T18:57:52;100557.59;;;4.44;100.00
21100;BME280;10708;50.824;4.408;2022-12-07T19:02:56;100567.28;;;4.30;100.00
21100;BME280;10708;50.824;4.408;2022-12-07T19:08:00;100564.59;;;4.40;100.00
21100;BME280;10708;50.824;4.408;2022-12-07T19:13:02;100560.41;;;4.24;100.00
21100;BME280;10708;50.824;4.408;2022-12-07T19:18:07;100554.31;;;4.28;100.00
21100;BME280;10708;50.824;4.408;2022-12-07T19:23:10;100555.19;;;4.26;100.00
21100;BME280;10708;50.824;4.408;2022-12-07T19:28:13;100541.31;;;4.21;100.00
21100;BME280;10708;50.824;4.408;2022-12-07T19:33:17;100552.66;;;4.18;100.00
21100;BME280;10708;50.824;4.408;2022-12-07T19:38:19;100550.06;;;4.17;100.00
21100;BME280;10708;50.824;4.408;2022-12-07T19:43:23;100550.06;;;4.17;100.00
21100;BME280;10708;50.824;4.408;2022-12-07T19:48:27;100538.81;;;4.10;100.00
21100;BME280;10708;50.824;4.408;2022-12-07T19:53:33;100539.78;;;4.03;100.00
21100;BME280;10708;50.824;4.408;2022-12-07T19:58:36;100532.72;;;4.14;100.00
21100;BME280;10708;50.824;4.408;2022-12-07T20:03:40;100529.41;;;3.98;100.00
21100;BME280;10708;50.824;4.408;2022-12-07T20:08:44;100518.06;;;4.02;100.00
21100;BME280;10708;50.824;4.408;2022-12-07T20:13:47;100525.09;;;3.93;100.00
21100;BME280;10708;50.824;4.408;2022-12-07T20:18:58;100532.13;;;3.85;100.00
21100;BME280;10708;50.824;4.408;2022-12-07T20:29:24;100514.78;;;3.84;100.00
21100;BME280;10708;50.824;4.408;2022-12-07T20:34:44;100513.03;;;3.84;100.00
21100;BME280;10708;50.824;4.408;2022-12-07T20:40:05;100508.66;;;3.86;100.00
21100;BME280;10708;50.824;4.408;2022-12-07T20:45:16;100504.28;;;3.90;100.00
21100;BME280;10708;50.824;4.408;2022-12-07T20:50:52;100494.75;;;3.89;100.00
21100;BME280;10708;50.824;4.408;2022-12-07T20:56:00;100496.56;;;3.81;100.00
21100;BME280;10708;50.824;4.408;2022-12-07T21:01:07;100486.19;;;3.76;100.00
21100;BME280;10708;50.824;4.408;2022-12-07T21:06:13;100487.97;;;3.71;100.00
21100;BME280;10708;50.824;4.408;2022-12-07T21:11:18;100493.31;;;3.57;100.00
21100;BME280;10708;50.824;4.408;2022-12-07T21:16:24;100487.16;;;3.64;100.00
21100;BME280;10708;50.824;4.408;2022-12-07T21:21:31;100484.63;;;3.55;100.00
21100;BME280;10708;50.824;4.408;2022-12-07T21:26:34;100471.59;;;3.58;100.00
21100;BME280;10708;50.824;4.408;2022-12-07T21:31:37;100468.03;;;3.67;100.00
21100;BME280;10708;50.824;4.408;2022-12-07T21:36:41;100472.34;;;3.69;100.00
21100;BME280;10708;50.824;4.408;2022-12-07T21:41:43;100459.28;;;3.74;100.00
21100;BME280;10708;50.824;4.408;2022-12-07T21:46:46;100448.00;;;3.75;100.00
21100;BME280;10708;50.824;4.408;2022-12-07T21:52:05;100451.53;;;3.68;100.00
21100;BME280;10708;50.824;4.408;2022-12-07T22:13:51;100443.63;;;3.77;100.00
21100;BME280;10708;50.824;4.408;2022-12-07T22:19:11;100443.59;;;3.80;100.00
21100;BME280;10708;50.824;4.408;2022-12-07T22:24:14;100434.19;;;3.68;100.00
21100;BME280;10708;50.824;4.408;2022-12-07T22:29:18;100427.16;;;3.75;100.00
21100;BME280;10708;50.824;4.408;2022-12-07T22:34:21;100423.59;;;3.82;100.00
21100;BME280;10708;50.824;4.408;2022-12-07T22:39:24;100418.38;;;3.84;100.00
21100;BME280;10708;50.824;4.408;2022-12-07T22:44:27;100412.31;;;3.82;100.00
21100;BME280;10708;50.824;4.408;2022-12-07T22:49:30;100408.81;;;3.84;100.00
21100;BME280;10708;50.824;4.408;2022-12-07T22:54:32;100403.69;;;3.77;100.00
21100;BME280;10708;50.824;4.408;2022-12-07T22:59:36;100399.38;;;3.76;100.00
21100;BME280;10708;50.824;4.408;2022-12-07T23:04:39;100392.34;;;3.81;100.00
21100;BME280;10708;50.824;4.408;2022-12-07T23:09:41;100398.47;;;3.78;100.00
21100;BME280;10708;50.824;4.408;2022-12-07T23:14:45;100389.84;;;3.71;100.00
21100;BME280;10708;50.824;4.408;2022-12-07T23:19:48;100381.16;;;3.74;100.00
21100;BME280;10708;50.824;4.408;2022-12-07T23:24:50;100375.06;;;3.74;100.00
21100;BME280;10708;50.824;4.408;2022-12-07T23:29:54;100360.34;;;3.71;100.00
21100;BME280;10708;50.824;4.408;2022-12-07T23:34:56;100356.06;;;3.65;100.00
21100;BME280;10708;50.824;4.408;2022-12-07T23:39:58;100357.03;;;3.57;100.00
21100;BME280;10708;50.824;4.408;2022-12-07T23:45:03;100347.41;;;3.62;100.00
21100;BME280;10708;50.824;4.408;2022-12-07T23:50:07;100342.28;;;3.57;100.00
21100;BME280;10708;50.824;4.408;2022-12-07T23:55:09;100344.03;;;3.55;100.00
